createdAt,value
2023-11-18T00:02:26.335Z,90.15
2023-11-18T00:05:32.170Z,90.24
2023-11-18T00:08:38.306Z,90.12
2023-11-18T00:11:44.414Z,90.02
2023-11-18T00:14:50.299Z,90.10
2023-11-18T00:17:55.985Z,89.96
2023-11-18T00:21:01.750Z,90.09
2023-11-18T00:24:09.229Z,90.05
2023-11-18T00:27:16.367Z,90.08
2023-11-18T00:30:22.041Z,90.13
2023-11-18T00:33:27.724Z,90.07
2023-11-18T00:36:33.465Z,90.09
2023-11-18T00:39:39.734Z,90.13
2023-11-18T00:42:45.425Z,90.17
2023-11-18T00:45:52.521Z,90.12
2023-11-18T00:48:59.622Z,90.10
2023-11-18T00:52:06.133Z,90.06
2023-11-18T00:55:12.707Z,90.14
2023-11-18T00:58:18.351Z,90.10
2023-11-18T01:01:23.998Z,90.04
2023-11-18T01:04:29.690Z,90.13
2023-11-18T01:07:35.355Z,90.02
2023-11-18T01:10:41.501Z,89.95
2023-11-18T01:13:47.201Z,89.93
2023-11-18T01:16:53.915Z,90.09
2023-11-18T01:20:00.488Z,90.05
2023-11-18T01:23:06.285Z,89.97
2023-11-18T01:26:13.636Z,90.00
2023-11-18T01:29:19.466Z,89.85
2023-11-18T01:32:26.766Z,89.76
2023-11-18T01:35:32.771Z,89.88
2023-11-18T01:38:39.666Z,89.75
2023-11-18T01:41:45.738Z,89.82
2023-11-18T01:44:52.401Z,89.80
2023-11-18T01:47:58.334Z,89.83
2023-11-18T01:51:07.346Z,89.96
2023-11-18T01:54:16.930Z,89.90
2023-11-18T01:57:22.794Z,89.79
2023-11-18T02:00:29.064Z,89.82
2023-11-18T02:03:34.794Z,89.72
2023-11-18T02:06:40.991Z,89.89
2023-11-18T02:09:47.296Z,89.86
2023-11-18T02:12:57.866Z,89.76
2023-11-18T02:16:06.422Z,89.78
2023-11-18T02:19:21.790Z,89.96
2023-11-18T02:22:27.955Z,89.88
2023-11-18T02:25:41.854Z,89.97
2023-11-18T02:28:47.593Z,89.98
2023-11-18T02:31:59.838Z,90.01
2023-11-18T02:35:12.056Z,89.97
2023-11-18T02:38:21.591Z,89.93
2023-11-18T02:41:30.566Z,89.85
2023-11-18T02:44:37.585Z,89.76
2023-11-18T02:47:43.750Z,89.82
2023-11-18T02:50:49.399Z,89.87
2023-11-18T02:53:55.924Z,90.07
2023-11-18T02:57:01.846Z,90.10
2023-11-18T03:00:13.466Z,89.99
2023-11-18T03:03:19.358Z,90.01
2023-11-18T03:06:25.043Z,90.04
2023-11-18T03:09:30.945Z,89.95
2023-11-18T03:12:36.810Z,89.81
2023-11-18T03:15:42.847Z,89.97
2023-11-18T03:18:49.360Z,89.97
2023-11-18T03:21:55.865Z,89.95
2023-11-18T03:25:01.479Z,90.00
2023-11-18T03:28:08.698Z,89.90
2023-11-18T03:31:15.822Z,89.92
2023-11-18T03:34:22.098Z,89.95
2023-11-18T03:37:27.568Z,90.01
2023-11-18T03:40:34.194Z,90.09
2023-11-18T03:43:40.927Z,90.12
2023-11-18T03:46:46.716Z,90.13
2023-11-18T03:49:52.668Z,90.06
2023-11-18T03:52:58.447Z,90.17
2023-11-18T03:56:04.632Z,89.99
2023-11-18T03:59:08.996Z,90.12
2023-11-18T04:02:14.736Z,90.11
2023-11-18T04:05:20.491Z,90.29
2023-11-18T04:08:26.753Z,90.19
2023-11-18T04:11:30.802Z,90.22
2023-11-18T04:14:36.478Z,90.23
2023-11-18T04:17:42.460Z,90.26
2023-11-18T04:20:51.609Z,89.95
2023-11-18T04:23:57.565Z,90.04
2023-11-18T04:27:03.578Z,90.14
2023-11-18T04:30:11.380Z,90.15
2023-11-18T04:33:17.049Z,90.01
2023-11-18T04:36:23.349Z,89.95
2023-11-18T04:39:29.521Z,89.76
2023-11-18T04:42:35.128Z,89.70
2023-11-18T04:45:41.394Z,89.58
2023-11-18T04:48:45.561Z,89.55
2023-11-18T04:51:51.375Z,89.75
2023-11-18T04:54:57.042Z,89.94
2023-11-18T04:58:02.722Z,90.16
2023-11-18T05:01:10.220Z,90.15
2023-11-18T05:04:17.103Z,90.00
2023-11-18T05:07:22.959Z,90.05
2023-11-18T05:10:28.634Z,90.08
2023-11-18T05:13:35.341Z,90.16
2023-11-18T05:16:41.481Z,90.23
2023-11-18T05:19:47.171Z,90.19
2023-11-18T05:22:52.948Z,90.27
2023-11-18T05:25:59.502Z,90.41
2023-11-18T05:29:05.742Z,90.27
2023-11-18T05:32:11.879Z,90.34
2023-11-18T05:35:17.553Z,90.39
2023-11-18T05:38:25.032Z,90.05
2023-11-18T05:41:31.817Z,89.89
2023-11-18T05:44:39.073Z,90.06
2023-11-18T05:47:44.740Z,90.44
2023-11-18T05:50:50.623Z,90.48
2023-11-18T05:53:56.589Z,90.63
2023-11-18T05:57:02.504Z,90.52
2023-11-18T06:00:17.879Z,90.53
2023-11-18T06:03:26.616Z,90.62
2023-11-18T06:06:33.288Z,90.55
2023-11-18T06:09:38.920Z,90.68
2023-11-18T06:12:44.645Z,90.71
2023-11-18T06:15:51.079Z,90.72
2023-11-18T06:18:59.813Z,90.77
2023-11-18T06:22:07.053Z,90.72
2023-11-18T06:25:14.126Z,90.78
2023-11-18T06:28:19.830Z,90.69
2023-11-18T06:31:25.999Z,90.68
2023-11-18T06:34:31.662Z,90.63
2023-11-18T06:37:37.568Z,90.79
2023-11-18T06:40:43.217Z,90.88
2023-11-18T06:43:58.663Z,90.94
2023-11-18T06:47:06.353Z,90.93
2023-11-18T06:50:15.653Z,90.98
2023-11-18T06:53:21.880Z,91.09
2023-11-18T06:56:26.414Z,90.92
2023-11-18T06:59:32.054Z,90.78
2023-11-18T07:02:37.712Z,90.90
2023-11-18T07:05:43.383Z,90.92
2023-11-18T07:08:49.855Z,90.95
2023-11-18T07:11:57.301Z,91.08
2023-11-18T07:15:03.775Z,91.03
2023-11-18T07:18:10.159Z,91.06
2023-11-18T07:21:15.872Z,90.64
2023-11-18T07:24:22.621Z,90.02
2023-11-18T07:27:28.338Z,89.77
2023-11-18T07:30:33.932Z,89.70
2023-11-18T07:33:40.870Z,89.67
2023-11-18T07:36:48.609Z,90.00
2023-11-18T07:39:56.343Z,90.01
2023-11-18T07:43:03.949Z,89.77
2023-11-18T07:46:10.157Z,90.09
2023-11-18T07:49:17.775Z,89.98
2023-11-18T07:52:23.433Z,90.21
2023-11-18T07:55:29.601Z,90.22
2023-11-18T07:58:38.526Z,90.39
2023-11-18T08:01:47.558Z,90.40
2023-11-18T08:04:53.516Z,90.46
2023-11-18T08:08:00.419Z,90.65
2023-11-18T08:11:07.015Z,90.83
2023-11-18T08:14:12.764Z,90.93
2023-11-18T08:17:18.454Z,90.95
2023-11-18T08:20:26.597Z,91.22
2023-11-18T08:23:32.898Z,91.32
2023-11-18T08:26:38.718Z,91.31
2023-11-18T08:29:44.320Z,91.39
2023-11-18T08:32:50.307Z,91.36
2023-11-18T08:35:56.295Z,91.27
2023-11-18T08:39:01.992Z,91.31
2023-11-18T08:42:08.840Z,91.25
2023-11-18T08:45:15.642Z,91.17
2023-11-18T08:48:21.292Z,91.38
2023-11-18T08:51:27.298Z,91.21
2023-11-18T08:54:39.124Z,91.45
2023-11-18T08:57:53.947Z,91.42
2023-11-18T09:01:07.819Z,91.10
2023-11-18T09:04:13.865Z,91.33
2023-11-18T09:07:20.337Z,91.58
2023-11-18T09:10:26.393Z,91.62
2023-11-18T09:13:32.899Z,91.34
2023-11-18T09:16:40.876Z,91.20
2023-11-18T09:19:47.632Z,91.28
2023-11-18T09:22:56.990Z,91.30
2023-11-18T09:26:03.725Z,91.37
2023-11-18T09:29:10.763Z,91.34
2023-11-18T09:32:16.617Z,91.48
2023-11-18T09:35:22.722Z,91.28
2023-11-18T09:38:32.486Z,91.09
2023-11-18T09:41:39.052Z,91.12
2023-11-18T09:44:45.268Z,91.25
2023-11-18T09:47:54.895Z,90.94
2023-11-18T09:51:03.668Z,90.90
2023-11-18T09:54:19.309Z,90.80
2023-11-18T09:57:34.628Z,90.89
2023-11-18T10:00:42.937Z,91.05
2023-11-18T10:03:50.230Z,90.97
2023-11-18T10:06:57.999Z,91.11
2023-11-18T10:10:03.893Z,91.03
2023-11-18T10:13:22.841Z,90.86
2023-11-18T10:16:32.119Z,90.80
2023-11-18T10:19:58.784Z,90.57
2023-11-18T10:23:14.243Z,89.90
2023-11-18T10:26:20.436Z,89.41
2023-11-18T10:29:30.238Z,89.37
2023-11-18T10:32:37.479Z,89.66
2023-11-18T10:35:57.145Z,89.88
2023-11-18T10:39:14.835Z,89.77
2023-11-18T10:42:20.754Z,89.77
2023-11-18T10:45:29.463Z,89.72
2023-11-18T10:48:35.124Z,89.71
2023-11-18T10:51:43.179Z,89.58
2023-11-18T10:54:57.209Z,89.43
2023-11-18T10:58:04.771Z,89.43
2023-11-18T11:01:12.904Z,89.55
2023-11-18T11:04:22.312Z,89.58
2023-11-18T11:07:31.030Z,89.51
2023-11-18T11:10:37.381Z,90.02
2023-11-18T11:13:43.327Z,89.95
2023-11-18T11:16:55.106Z,89.88
2023-11-18T11:20:18.815Z,89.83
2023-11-18T11:23:44.750Z,89.81
2023-11-18T11:27:18.633Z,89.73
2023-11-18T11:30:33.075Z,89.69
2023-11-18T11:33:46.965Z,89.51
2023-11-18T11:36:53.954Z,89.54
2023-11-18T11:39:59.820Z,89.27
2023-11-18T11:43:10.803Z,89.23
2023-11-18T11:46:24.595Z,89.30
2023-11-18T11:49:38.189Z,89.27
2023-11-18T11:52:51.809Z,89.23
2023-11-18T11:56:07.729Z,89.39
2023-11-18T11:59:13.043Z,89.14
2023-11-18T12:02:19.189Z,89.36
2023-11-18T12:05:28.559Z,89.40
2023-11-18T12:08:35.041Z,89.35
2023-11-18T12:11:43.080Z,89.29
2023-11-18T12:14:57.628Z,89.20
2023-11-18T12:18:18.796Z,89.10
2023-11-18T12:21:55.551Z,89.20
2023-11-18T12:25:37.781Z,89.24
2023-11-18T12:28:47.111Z,88.99
2023-11-18T12:31:53.302Z,88.94
2023-11-18T12:35:00.770Z,88.97
2023-11-18T12:38:47.279Z,88.90
2023-11-18T12:42:08.055Z,88.94
2023-11-18T12:45:55.003Z,88.92
2023-11-18T12:49:02.843Z,88.78
2023-11-18T12:52:09.615Z,88.69
2023-11-18T12:55:20.375Z,88.52
2023-11-18T12:58:26.263Z,88.71
2023-11-18T13:01:35.052Z,88.68
2023-11-18T13:04:41.637Z,88.49
2023-11-18T13:07:48.612Z,88.27
2023-11-18T13:10:54.533Z,88.33
2023-11-18T13:14:00.988Z,88.25
2023-11-18T13:17:07.299Z,88.42
2023-11-18T13:20:24.712Z,88.27
2023-11-18T13:23:31.542Z,88.32
2023-11-18T13:26:37.791Z,88.46
2023-11-18T13:29:50.212Z,88.56
2023-11-18T13:32:57.486Z,88.49
2023-11-18T13:36:06.622Z,88.25
2023-11-18T13:39:18.265Z,88.08
2023-11-18T13:42:27.357Z,88.16
2023-11-18T13:45:38.448Z,88.18
2023-11-18T13:48:50.412Z,88.13
2023-11-18T13:51:57.014Z,88.15
2023-11-18T13:55:02.760Z,88.19
2023-11-18T13:58:11.924Z,87.79
2023-11-18T14:01:17.863Z,87.86
2023-11-18T14:04:24.400Z,87.76
2023-11-18T14:07:30.053Z,87.88
2023-11-18T14:10:39.383Z,87.96
2023-11-18T14:25:29.387Z,87.52
2023-11-18T14:28:36.199Z,87.45
2023-11-18T14:31:42.310Z,87.48
2023-11-18T14:34:50.301Z,87.71
2023-11-18T14:37:57.308Z,87.70
2023-11-18T14:41:04.000Z,87.50
2023-11-18T14:44:10.837Z,87.44
2023-11-18T14:47:17.989Z,87.41
2023-11-18T14:50:28.717Z,87.45
2023-11-18T14:53:35.309Z,87.45
2023-11-18T14:56:41.129Z,87.47
2023-11-18T14:59:46.798Z,87.42
2023-11-18T15:02:55.425Z,87.30
2023-11-18T15:06:02.834Z,87.50
2023-11-18T15:09:12.341Z,87.30
2023-11-18T15:12:18.186Z,87.26
2023-11-18T15:15:32.509Z,87.40
2023-11-18T15:18:39.734Z,87.32
2023-11-18T15:21:47.088Z,87.40
2023-11-18T15:24:53.151Z,87.50
2023-11-18T15:28:00.000Z,87.22
2023-11-18T15:31:06.485Z,87.06
2023-11-18T15:34:12.997Z,86.87
2023-11-18T15:37:18.700Z,87.10
2023-11-18T15:40:26.869Z,86.83
2023-11-18T15:43:33.557Z,86.84
2023-11-18T15:46:39.455Z,86.62
2023-11-18T15:49:46.107Z,86.57
2023-11-18T15:52:53.587Z,86.71
2023-11-18T15:55:59.545Z,86.68
2023-11-18T15:59:05.636Z,86.66
2023-11-18T16:02:11.359Z,86.72
2023-11-18T16:05:18.898Z,86.60
2023-11-18T16:08:25.807Z,86.66
2023-11-18T16:11:31.745Z,86.66
2023-11-18T16:14:38.229Z,86.57
2023-11-18T16:17:47.237Z,86.62
2023-11-18T16:20:53.018Z,86.50
2023-11-18T16:23:59.328Z,86.46
2023-11-18T16:27:03.416Z,86.37
2023-11-18T16:30:11.048Z,86.34
2023-11-18T16:33:16.772Z,86.25
2023-11-18T16:36:24.323Z,86.21
2023-11-18T16:39:30.015Z,86.19
2023-11-18T16:42:37.752Z,86.20
2023-11-18T16:45:43.700Z,86.27
2023-11-18T16:48:49.551Z,86.12
2023-11-18T16:51:59.312Z,86.11
2023-11-18T16:55:07.612Z,86.16
2023-11-18T16:58:13.363Z,86.30
2023-11-18T17:01:19.286Z,86.27
2023-11-18T17:04:25.687Z,86.27
2023-11-18T17:07:31.530Z,86.15
2023-11-18T17:10:37.494Z,85.97
2023-11-18T17:13:43.339Z,85.82
2023-11-18T17:16:49.004Z,85.83
2023-11-18T17:19:54.770Z,85.85
2023-11-18T17:23:01.095Z,85.85
2023-11-18T17:26:06.915Z,86.00
2023-11-18T17:29:14.923Z,86.05
2023-11-18T17:32:20.592Z,86.00
2023-11-18T17:35:27.260Z,85.69
2023-11-18T17:38:34.438Z,85.64
2023-11-18T17:41:40.293Z,85.75
2023-11-18T17:44:46.230Z,85.85
2023-11-18T17:47:52.243Z,85.85
2023-11-18T17:50:59.823Z,85.87
2023-11-18T17:54:05.740Z,85.72
2023-11-18T17:57:12.030Z,85.76
2023-11-18T18:00:21.519Z,85.87
2023-11-18T18:03:27.945Z,85.94
2023-11-18T18:06:32.134Z,85.99
2023-11-18T18:09:38.527Z,85.96
2023-11-18T18:12:48.049Z,86.04
2023-11-18T18:15:54.368Z,86.04
2023-11-18T18:19:01.516Z,85.94
2023-11-18T18:22:07.590Z,85.96
2023-11-18T18:25:13.810Z,85.99
2023-11-18T18:28:18.144Z,85.95
2023-11-18T18:31:23.857Z,85.95
2023-11-18T18:34:31.493Z,85.91
2023-11-18T18:37:37.439Z,86.05
2023-11-18T18:40:43.283Z,86.42
2023-11-18T18:43:48.882Z,85.98
2023-11-18T18:46:55.701Z,85.80
2023-11-18T18:50:01.401Z,85.68
2023-11-18T18:53:08.451Z,85.64
2023-11-18T18:56:14.293Z,85.56
2023-11-18T18:59:20.890Z,85.60
2023-11-18T19:02:27.291Z,85.80
2023-11-18T19:05:33.548Z,85.85
2023-11-18T19:08:39.332Z,85.58
2023-11-18T19:11:46.015Z,85.80
2023-11-18T19:14:51.672Z,85.70
2023-11-18T19:17:59.075Z,85.63
2023-11-18T19:21:05.172Z,85.71
2023-11-18T19:24:14.240Z,85.83
2023-11-18T19:27:19.917Z,85.79
2023-11-18T19:30:25.877Z,85.84
2023-11-18T19:33:31.654Z,85.88
2023-11-18T19:36:37.575Z,85.91
2023-11-18T19:39:44.460Z,85.91
2023-11-18T19:42:50.281Z,85.88
2023-11-18T19:45:55.910Z,85.86
2023-11-18T19:49:01.872Z,85.93
2023-11-18T19:52:08.660Z,85.92
2023-11-18T19:55:15.611Z,85.81
2023-11-18T19:58:23.253Z,85.85
2023-11-18T20:01:29.923Z,85.94
2023-11-18T20:04:36.326Z,85.86
2023-11-18T20:07:41.249Z,85.84
2023-11-18T20:10:48.486Z,85.88
2023-11-18T20:13:54.463Z,86.00
2023-11-18T20:17:00.452Z,85.99
2023-11-18T20:20:09.583Z,85.95
2023-11-18T20:23:15.951Z,85.85
2023-11-18T20:26:20.092Z,86.00
2023-11-18T20:29:25.873Z,86.03
2023-11-18T20:32:31.673Z,85.98
2023-11-18T20:35:37.441Z,85.84
2023-11-18T20:38:44.297Z,85.94
2023-11-18T20:41:50.508Z,86.03
2023-11-18T20:44:55.237Z,86.01
2023-11-18T20:48:01.021Z,86.01
2023-11-18T20:51:09.090Z,86.02
2023-11-18T20:54:15.432Z,86.04
2023-11-18T20:57:22.188Z,86.01
2023-11-18T21:00:27.972Z,86.10
2023-11-18T21:03:33.877Z,86.06
2023-11-18T21:06:39.786Z,85.93
2023-11-18T21:09:45.507Z,85.90
2023-11-18T21:12:51.606Z,85.80
2023-11-18T21:15:57.291Z,85.70
2023-11-18T21:19:04.630Z,85.92
2023-11-18T21:22:10.743Z,85.95
2023-11-18T21:25:17.257Z,85.86
2023-11-18T21:28:23.302Z,85.99
2023-11-18T21:31:29.313Z,86.02
2023-11-18T21:34:34.949Z,85.95
2023-11-18T21:37:40.810Z,85.87
2023-11-18T21:40:47.590Z,85.90
2023-11-18T21:43:53.321Z,85.99
2023-11-18T21:46:58.974Z,85.92
2023-11-18T21:50:06.850Z,85.95
2023-11-18T21:53:12.684Z,85.99
2023-11-18T21:56:18.550Z,85.86
2023-11-18T21:59:26.467Z,85.82
2023-11-18T22:02:32.162Z,85.76
2023-11-18T22:05:37.944Z,85.78
2023-11-18T22:08:43.777Z,85.87
2023-11-18T22:11:50.803Z,85.92
2023-11-18T22:14:58.331Z,85.87
2023-11-18T22:18:04.257Z,85.74
2023-11-18T22:21:12.056Z,85.82
2023-11-18T22:24:19.341Z,85.76
2023-11-18T22:27:24.946Z,85.74
2023-11-18T22:30:30.741Z,85.70
2023-11-18T22:33:37.354Z,85.71
2023-11-18T22:36:45.561Z,85.84
2023-11-18T22:39:51.445Z,85.84
2023-11-18T22:42:57.290Z,85.75
2023-11-18T22:46:03.120Z,85.68
2023-11-18T22:49:11.765Z,85.77
2023-11-18T22:52:17.640Z,85.83
2023-11-18T22:55:24.184Z,85.86
2023-11-18T22:58:29.965Z,85.76
2023-11-18T23:01:37.955Z,85.73
2023-11-18T23:04:46.712Z,85.64
2023-11-18T23:07:52.447Z,85.82
2023-11-18T23:10:58.170Z,85.76
2023-11-18T23:14:04.628Z,85.80
2023-11-18T23:17:10.741Z,85.73
2023-11-18T23:20:16.500Z,85.69
2023-11-18T23:23:22.822Z,85.69
2023-11-18T23:26:27.383Z,85.72
2023-11-18T23:29:33.031Z,85.74
2023-11-18T23:32:40.950Z,85.75
2023-11-18T23:35:46.902Z,85.78
2023-11-18T23:39:02.242Z,85.80
2023-11-18T23:42:11.163Z,85.78
2023-11-18T23:45:17.296Z,85.82
2023-11-18T23:48:23.022Z,85.79
2023-11-18T23:51:29.510Z,85.80
2023-11-18T23:54:35.169Z,85.80
2023-11-18T23:57:41.678Z,85.86
